createdAt,value
2023-03-18T00:00:13.267Z,29.40
2023-03-18T00:02:40.768Z,30.55
2023-03-18T00:05:08.841Z,32.33
2023-03-18T00:07:36.370Z,35.38
2023-03-18T00:10:07.614Z,30.42
2023-03-18T00:12:34.513Z,31.05
2023-03-18T00:15:02.477Z,29.25
2023-03-18T00:17:29.052Z,30.27
2023-03-18T00:19:55.723Z,29.73
2023-03-18T00:22:22.794Z,31.70
2023-03-18T00:24:49.474Z,31.30
2023-03-18T00:27:16.456Z,29.50
2023-03-18T00:29:43.910Z,29.08
2023-03-18T00:32:11.165Z,29.52
2023-03-18T00:34:37.758Z,30.35
2023-03-18T00:37:04.470Z,32.80
2023-03-18T00:39:33.084Z,29.60
2023-03-18T00:42:08.118Z,30.55
2023-03-18T00:44:34.736Z,29.23
2023-03-18T00:47:01.503Z,31.35
2023-03-18T00:49:28.090Z,27.98
2023-03-18T00:51:54.652Z,28.40
2023-03-18T00:54:22.443Z,28.92
2023-03-18T00:56:49.750Z,29.38
2023-03-18T00:59:16.781Z,31.45
2023-03-18T01:01:43.402Z,26.55
2023-03-18T01:04:10.196Z,27.88
2023-03-18T01:06:38.590Z,28.33
2023-03-18T01:09:08.860Z,27.52
2023-03-18T01:11:35.561Z,28.02
2023-03-18T01:14:03.637Z,26.65
2023-03-18T01:16:30.393Z,27.02
2023-03-18T01:18:57.354Z,31.00
2023-03-18T01:21:23.946Z,27.33
2023-03-18T01:23:50.530Z,26.38
2023-03-18T01:26:17.393Z,27.95
2023-03-18T01:28:44.354Z,28.40
2023-03-18T01:31:12.584Z,25.13
2023-03-18T01:33:40.321Z,25.88
2023-03-18T01:36:08.195Z,25.10
2023-03-18T01:38:35.425Z,29.45
2023-03-18T01:41:02.463Z,27.10
2023-03-18T01:43:35.802Z,28.48
2023-03-18T01:46:27.937Z,29.30
2023-03-18T01:48:54.792Z,26.73
2023-03-18T01:51:22.532Z,27.90
2023-03-18T01:53:50.732Z,26.65
2023-03-18T01:56:18.739Z,28.42
2023-03-18T01:58:49.573Z,26.15
2023-03-18T02:01:31.036Z,28.17
2023-03-18T02:03:57.945Z,28.67
2023-03-18T02:06:24.904Z,27.67
2023-03-18T02:08:51.757Z,28.05
2023-03-18T02:11:19.103Z,25.50
2023-03-18T02:13:46.791Z,26.65
2023-03-18T02:16:25.700Z,25.75
2023-03-18T02:18:56.501Z,28.52
2023-03-18T02:22:00.869Z,26.20
2023-03-18T02:24:39.043Z,28.45
2023-03-18T02:27:25.721Z,28.13
2023-03-18T02:29:59.636Z,25.77
2023-03-18T02:32:28.603Z,26.40
2023-03-18T02:34:57.124Z,25.55
2023-03-18T02:37:23.705Z,25.80
2023-03-18T02:39:50.673Z,28.48
2023-03-18T02:42:29.444Z,27.52
2023-03-18T02:44:56.337Z,27.15
2023-03-18T02:47:26.303Z,26.20
2023-03-18T02:49:53.653Z,25.38
2023-03-18T02:52:20.253Z,23.70
2023-03-18T02:54:46.913Z,25.50
2023-03-18T02:57:13.492Z,24.42
2023-03-18T02:59:40.023Z,25.90
2023-03-18T03:02:07.165Z,25.40
2023-03-18T03:04:33.806Z,24.20
2023-03-18T03:07:01.629Z,23.55
2023-03-18T03:09:28.845Z,25.30
2023-03-18T03:11:55.583Z,27.45
2023-03-18T03:14:22.360Z,25.20
2023-03-18T03:16:50.206Z,23.40
2023-03-18T03:19:17.064Z,24.88
2023-03-18T03:21:43.940Z,23.52
2023-03-18T03:24:11.060Z,24.15
2023-03-18T03:26:37.756Z,23.65
2023-03-18T03:29:05.185Z,23.83
2023-03-18T03:31:31.995Z,23.40
2023-03-18T03:33:59.211Z,24.90
2023-03-18T03:36:26.108Z,22.25
2023-03-18T03:38:52.743Z,25.17
2023-03-18T03:41:19.645Z,22.80
2023-03-18T03:43:46.231Z,22.23
2023-03-18T03:46:12.898Z,21.67
2023-03-18T03:48:39.786Z,24.15
2023-03-18T03:51:07.558Z,22.85
2023-03-18T03:53:34.737Z,22.50
2023-03-18T03:56:01.677Z,23.63
2023-03-18T03:58:29.075Z,21.92
2023-03-18T04:00:56.086Z,21.98
2023-03-18T04:03:22.691Z,23.77
2023-03-18T04:05:49.453Z,23.20
2023-03-18T04:08:16.167Z,22.20
2023-03-18T04:10:43.283Z,23.48
2023-03-18T04:13:10.270Z,22.30
2023-03-18T04:15:37.717Z,24.27
2023-03-18T04:18:07.122Z,22.33
2023-03-18T04:20:38.760Z,23.45
2023-03-18T04:23:06.445Z,22.80
2023-03-18T04:25:33.309Z,23.02
2023-03-18T04:27:59.884Z,24.10
2023-03-18T04:30:27.515Z,23.42
2023-03-18T04:32:55.077Z,22.80
2023-03-18T04:35:23.327Z,23.05
2023-03-18T04:37:50.395Z,22.50
2023-03-18T04:40:17.750Z,23.75
2023-03-18T04:42:47.453Z,24.20
2023-03-18T04:45:15.622Z,23.35
2023-03-18T04:47:43.005Z,23.25
2023-03-18T04:50:13.726Z,23.52
2023-03-18T04:52:40.888Z,23.15
2023-03-18T04:55:09.481Z,23.13
2023-03-18T04:57:37.714Z,23.80
2023-03-18T05:00:09.657Z,24.33
2023-03-18T05:02:38.346Z,25.35
2023-03-18T05:05:05.649Z,23.65
2023-03-18T05:07:32.186Z,25.48
2023-03-18T05:09:58.888Z,24.23
2023-03-18T05:12:25.694Z,23.67
2023-03-18T05:14:52.964Z,25.80
2023-03-18T05:17:19.979Z,27.33
2023-03-18T05:19:48.461Z,25.00
2023-03-18T05:22:18.009Z,29.05
2023-03-18T05:24:48.342Z,32.20
2023-03-18T05:27:18.263Z,33.90
2023-03-18T05:29:45.752Z,30.95
2023-03-18T05:32:12.759Z,31.23
2023-03-18T05:34:41.960Z,28.67
2023-03-18T05:37:11.017Z,28.65
2023-03-18T05:39:38.301Z,27.73
2023-03-18T05:42:05.560Z,26.38
2023-03-18T05:44:32.652Z,26.77
2023-03-18T05:46:59.680Z,27.35
2023-03-18T05:49:27.384Z,27.73
2023-03-18T05:51:55.068Z,27.88
2023-03-18T05:54:22.066Z,26.65
2023-03-18T05:56:49.873Z,26.77
2023-03-18T05:59:16.618Z,27.00
2023-03-18T06:01:44.543Z,24.80
2023-03-18T06:04:11.464Z,24.30
2023-03-18T06:06:40.579Z,24.80
2023-03-18T06:09:12.874Z,22.55
2023-03-18T06:11:40.218Z,23.85
2023-03-18T06:14:08.078Z,21.80
2023-03-18T06:16:35.162Z,23.08
2023-03-18T06:19:03.378Z,22.65
2023-03-18T06:21:31.643Z,23.40
2023-03-18T06:23:58.736Z,22.73
2023-03-18T06:26:25.466Z,21.67
2023-03-18T06:28:53.605Z,20.75
2023-03-18T06:31:21.872Z,20.88
2023-03-18T06:33:48.584Z,20.85
2023-03-18T06:36:16.767Z,20.90
2023-03-18T06:38:44.890Z,21.38
2023-03-18T06:41:11.928Z,20.88
2023-03-18T06:43:39.209Z,21.33
2023-03-18T06:46:05.955Z,22.67
2023-03-18T06:48:32.995Z,21.95
2023-03-18T06:50:59.637Z,23.17
2023-03-18T06:53:27.582Z,22.77
2023-03-18T06:55:54.233Z,23.00
2023-03-18T06:58:20.865Z,22.88
2023-03-18T07:00:47.764Z,23.98
2023-03-18T07:03:15.863Z,22.02
2023-03-18T07:05:42.891Z,23.05
2023-03-18T07:08:10.282Z,23.50
2023-03-18T07:10:37.080Z,24.08
2023-03-18T07:13:04.613Z,24.65
2023-03-18T07:15:32.098Z,22.85
2023-03-18T07:18:00.599Z,22.67
2023-03-18T07:20:28.218Z,24.70
2023-03-18T07:22:55.040Z,23.77
2023-03-18T07:25:23.093Z,22.70
2023-03-18T07:27:49.892Z,23.92
2023-03-18T07:30:18.033Z,22.55
2023-03-18T07:32:46.136Z,22.55
2023-03-18T07:35:14.286Z,23.00
2023-03-18T07:37:41.714Z,22.67
2023-03-18T07:40:10.245Z,23.00
2023-03-18T07:42:36.766Z,23.20
2023-03-18T07:45:03.831Z,22.88
2023-03-18T07:47:30.611Z,22.85
2023-03-18T07:49:57.531Z,23.80
2023-03-18T07:52:24.634Z,23.80
2023-03-18T07:54:51.254Z,23.35
2023-03-18T07:57:18.019Z,23.65
2023-03-18T07:59:44.921Z,25.35
2023-03-18T08:02:14.393Z,24.95
2023-03-18T08:04:42.829Z,23.77
2023-03-18T08:07:10.562Z,22.75
2023-03-18T08:09:37.342Z,23.17
2023-03-18T08:12:04.472Z,25.05
2023-03-18T08:14:31.328Z,22.77
2023-03-18T08:16:58.180Z,22.15
2023-03-18T08:19:24.909Z,22.60
2023-03-18T08:21:51.543Z,22.40
2023-03-18T08:24:18.393Z,22.58
2023-03-18T08:26:45.291Z,21.77
2023-03-18T08:29:11.865Z,22.75
2023-03-18T08:31:38.849Z,22.67
2023-03-18T08:34:05.643Z,21.50
2023-03-18T08:36:32.388Z,21.52
2023-03-18T08:38:58.963Z,20.13
2023-03-18T08:41:26.233Z,20.00
2023-03-18T08:43:53.283Z,19.80
2023-03-18T08:46:20.173Z,20.23
2023-03-18T08:48:46.837Z,19.77
2023-03-18T08:51:13.519Z,20.13
2023-03-18T08:53:40.707Z,19.65
2023-03-18T08:56:07.862Z,20.95
2023-03-18T08:58:34.710Z,20.13
2023-03-18T09:01:03.586Z,20.80
2023-03-18T09:03:30.496Z,21.13
2023-03-18T09:05:59.831Z,21.67
2023-03-18T09:08:26.583Z,20.55
2023-03-18T09:10:54.326Z,22.08
2023-03-18T09:13:22.252Z,22.17
2023-03-18T09:15:49.196Z,22.08
2023-03-18T09:18:18.472Z,21.30
2023-03-18T09:20:45.993Z,21.58
2023-03-18T09:23:14.254Z,21.50
2023-03-18T09:25:42.794Z,21.35
2023-03-18T09:28:09.859Z,20.85
2023-03-18T09:30:36.812Z,21.98
2023-03-18T09:33:06.262Z,21.67
2023-03-18T09:35:33.841Z,21.60
2023-03-18T09:38:01.363Z,21.65
2023-03-18T09:40:31.261Z,21.48
2023-03-18T09:43:15.864Z,20.10
2023-03-18T09:45:57.141Z,20.40
2023-03-18T09:48:43.747Z,20.15
2023-03-18T09:51:33.186Z,20.23
2023-03-18T09:54:06.925Z,19.83
2023-03-18T09:56:36.829Z,20.80
2023-03-18T09:59:32.132Z,20.35
2023-03-18T10:04:41.103Z,19.90
2023-03-18T10:07:15.245Z,20.17
2023-03-18T10:09:44.700Z,20.35
2023-03-18T10:12:21.696Z,21.80
2023-03-18T10:15:07.430Z,21.80
2023-03-18T10:17:45.535Z,21.38
2023-03-18T10:21:02.251Z,21.02
2023-03-18T10:23:46.363Z,20.40
2023-03-18T10:26:21.180Z,21.08
2023-03-18T10:29:04.196Z,21.10
2023-03-18T10:31:52.239Z,21.70
2023-03-18T10:34:24.009Z,21.83
2023-03-18T10:36:59.403Z,21.77
2023-03-18T10:39:28.320Z,22.15
2023-03-18T10:41:58.435Z,21.33
2023-03-18T10:44:30.465Z,21.80
2023-03-18T10:47:26.728Z,22.52
2023-03-18T10:50:12.114Z,21.38
2023-03-18T10:52:47.957Z,20.20
2023-03-18T10:55:22.461Z,20.63
2023-03-18T11:00:33.517Z,22.45
2023-03-18T11:05:33.758Z,19.83
2023-03-18T11:08:09.102Z,20.55
2023-03-18T11:10:40.538Z,20.15
2023-03-18T11:13:07.277Z,20.90
2023-03-18T11:15:40.371Z,21.40
2023-03-18T11:18:18.316Z,20.40
2023-03-18T11:20:49.295Z,21.33
2023-03-18T11:23:48.674Z,20.42
2023-03-18T11:26:27.521Z,20.42
2023-03-18T11:28:59.497Z,18.13
2023-03-18T11:31:26.057Z,18.42
2023-03-18T11:33:59.036Z,18.05
2023-03-18T11:36:28.324Z,16.83
2023-03-18T11:39:02.124Z,18.38
2023-03-18T11:41:31.983Z,17.80
2023-03-18T11:44:01.702Z,19.33
2023-03-18T11:46:39.168Z,16.75
2023-03-18T11:49:06.338Z,17.58
2023-03-18T11:52:00.665Z,15.00
2023-03-18T11:54:45.905Z,14.45
2023-03-18T11:57:35.164Z,12.63
2023-03-18T12:00:29.772Z,15.00
2023-03-18T12:03:03.483Z,14.27
2023-03-18T12:05:40.853Z,11.52
2023-03-18T12:08:45.012Z,11.40
2023-03-18T12:11:24.260Z,13.53
2023-03-18T12:14:09.748Z,11.57
2023-03-18T12:16:48.789Z,10.57
2023-03-18T12:20:00.563Z,11.32
2023-03-18T12:22:58.340Z,12.27
2023-03-18T12:25:52.843Z,11.43
2023-03-18T12:31:06.790Z,11.50
2023-03-18T12:34:01.419Z,12.23
2023-03-18T12:36:46.451Z,13.23
2023-03-18T12:39:12.999Z,12.57
2023-03-18T12:41:48.491Z,11.55
2023-03-18T12:44:18.727Z,12.52
2023-03-18T12:47:06.768Z,11.45
2023-03-18T12:49:38.975Z,11.23
2023-03-18T12:52:27.941Z,11.07
2023-03-18T12:55:27.832Z,11.55
2023-03-18T12:58:07.851Z,11.27
2023-03-18T13:00:37.989Z,12.20
2023-03-18T13:03:28.995Z,12.40
2023-03-18T13:06:05.109Z,11.50
2023-03-18T13:08:46.463Z,10.85
2023-03-18T13:11:47.114Z,11.00
2023-03-18T13:14:21.876Z,11.82
2023-03-18T13:16:50.481Z,11.73
2023-03-18T13:19:18.477Z,12.85
2023-03-18T13:21:52.547Z,11.73
2023-03-18T13:24:37.701Z,11.98
2023-03-18T13:27:15.333Z,11.88
2023-03-18T13:30:06.479Z,11.55
2023-03-18T13:33:11.467Z,12.38
2023-03-18T13:36:04.427Z,12.05
2023-03-18T13:38:40.332Z,11.30
2023-03-18T13:41:36.991Z,10.93
2023-03-18T13:44:15.044Z,11.68
2023-03-18T13:46:53.516Z,10.98
2023-03-18T13:49:24.357Z,11.00
2023-03-18T13:51:58.697Z,11.30
2023-03-18T13:54:34.872Z,10.95
2023-03-18T13:57:22.508Z,11.50
2023-03-18T13:59:49.484Z,10.80
2023-03-18T14:03:09.924Z,11.32
2023-03-18T14:05:41.068Z,11.40
2023-03-18T14:08:38.411Z,11.60
2023-03-18T14:11:17.157Z,11.30
2023-03-18T14:13:45.272Z,10.40
2023-03-18T14:16:14.982Z,11.18
2023-03-18T14:18:42.373Z,11.32
2023-03-18T14:21:27.254Z,11.77
2023-03-18T14:24:21.809Z,11.45
2023-03-18T14:29:47.662Z,10.43
2023-03-18T14:32:35.849Z,11.63
2023-03-18T14:35:17.479Z,12.05
2023-03-18T14:38:02.701Z,11.18
2023-03-18T14:40:35.207Z,10.68
2023-03-18T14:43:06.907Z,10.73
2023-03-18T14:45:44.117Z,10.82
2023-03-18T14:48:21.597Z,10.73
2023-03-18T14:50:51.215Z,10.57
2023-03-18T14:53:28.639Z,10.20
2023-03-18T14:55:57.438Z,9.80
2023-03-18T14:58:25.838Z,9.90
2023-03-18T15:00:57.600Z,10.10
2023-03-18T15:03:32.402Z,10.55
2023-03-18T15:06:01.830Z,10.07
2023-03-18T15:08:44.850Z,10.57
2023-03-18T15:11:14.217Z,10.38
2023-03-18T15:13:44.666Z,11.13
2023-03-18T15:16:14.282Z,10.43
2023-03-18T15:18:41.252Z,10.85
2023-03-18T15:21:19.124Z,11.40
2023-03-18T15:23:54.712Z,11.75
2023-03-18T15:26:35.167Z,10.68
2023-03-18T15:29:24.406Z,11.50
2023-03-18T15:31:52.966Z,11.45
2023-03-18T15:34:22.583Z,11.88
2023-03-18T15:37:04.671Z,11.57
2023-03-18T15:39:39.922Z,11.18
2023-03-18T15:42:21.307Z,10.70
2023-03-18T15:45:02.035Z,11.45
2023-03-18T15:47:31.611Z,10.52
2023-03-18T15:50:01.425Z,11.40
2023-03-18T15:52:33.625Z,10.82
2023-03-18T15:55:01.342Z,11.40
2023-03-18T15:57:38.957Z,10.63
2023-03-18T16:00:10.456Z,11.93
2023-03-18T16:02:38.253Z,10.32
2023-03-18T16:05:24.780Z,11.93
2023-03-18T16:07:53.126Z,10.85
2023-03-18T16:10:23.038Z,10.13
2023-03-18T16:12:55.289Z,11.10
2023-03-18T16:15:24.275Z,10.98
2023-03-18T16:17:53.478Z,11.35
2023-03-18T16:20:27.571Z,10.85
2023-03-18T16:22:54.533Z,12.18
2023-03-18T16:25:24.206Z,11.55
2023-03-18T16:27:54.095Z,9.98
2023-03-18T16:30:29.644Z,12.93
2023-03-18T16:32:57.852Z,10.90
2023-03-18T16:35:33.642Z,10.88
2023-03-18T16:38:01.181Z,11.13
2023-03-18T16:40:29.869Z,12.45
2023-03-18T16:42:56.696Z,10.82
2023-03-18T16:45:33.350Z,11.60
2023-03-18T16:48:03.369Z,11.40
2023-03-18T16:50:34.668Z,12.20
2023-03-18T16:53:02.355Z,12.57
2023-03-18T16:55:29.566Z,11.95
2023-03-18T16:57:59.369Z,12.35
2023-03-18T17:00:32.815Z,14.45
2023-03-18T17:03:00.905Z,14.23
2023-03-18T17:05:28.267Z,14.52
2023-03-18T17:07:55.359Z,14.10
2023-03-18T17:10:25.272Z,14.98
2023-03-18T17:12:56.415Z,15.57
2023-03-18T17:15:31.663Z,15.48
2023-03-18T17:17:59.614Z,16.55
2023-03-18T17:20:28.701Z,15.98
2023-03-18T17:22:58.354Z,16.15
2023-03-18T17:25:27.259Z,16.23
2023-03-18T17:27:59.349Z,16.80
2023-03-18T17:30:33.801Z,16.42
2023-03-18T17:33:01.382Z,16.02
2023-03-18T17:35:28.671Z,18.05
2023-03-18T17:37:55.572Z,16.63
2023-03-18T17:40:23.472Z,17.90
2023-03-18T17:42:51.820Z,17.45
2023-03-18T17:45:48.100Z,18.17
2023-03-18T17:48:20.718Z,17.15
2023-03-18T17:50:53.192Z,17.50
2023-03-18T17:53:24.327Z,17.52
2023-03-18T17:55:51.527Z,17.98
2023-03-18T17:58:20.303Z,18.20
2023-03-18T18:00:48.111Z,17.63
2023-03-18T18:03:27.058Z,17.77
2023-03-18T18:05:55.553Z,17.60
2023-03-18T18:08:25.245Z,17.55
2023-03-18T18:11:04.408Z,17.50
2023-03-18T18:13:31.072Z,17.67
2023-03-18T18:15:57.694Z,17.98
2023-03-18T18:18:25.629Z,17.63
2023-03-18T18:20:59.694Z,17.40
2023-03-18T18:23:31.801Z,18.98
2023-03-18T18:26:00.866Z,17.52
2023-03-18T18:28:33.497Z,17.90
2023-03-18T18:31:01.774Z,17.50
2023-03-18T18:33:29.393Z,17.77
2023-03-18T18:35:56.369Z,18.73
2023-03-18T18:38:23.278Z,17.38
2023-03-18T18:40:51.560Z,18.77
2023-03-18T18:43:18.157Z,17.95
2023-03-18T18:45:45.309Z,18.58
2023-03-18T18:48:14.141Z,18.27
2023-03-18T18:50:41.481Z,19.15
2023-03-18T18:53:27.018Z,19.25
2023-03-18T18:55:58.518Z,20.08
2023-03-18T18:58:32.702Z,19.15
2023-03-18T19:01:00.063Z,19.27
2023-03-18T19:03:31.321Z,21.20
2023-03-18T19:05:59.754Z,20.55
2023-03-18T19:08:31.675Z,21.50
2023-03-18T19:11:00.989Z,22.58
2023-03-18T19:13:29.814Z,22.27
2023-03-18T19:15:59.980Z,23.25
2023-03-18T19:18:35.296Z,23.83
2023-03-18T19:21:02.143Z,23.77
2023-03-18T19:23:35.360Z,23.77
2023-03-18T19:26:04.051Z,25.00
2023-03-18T19:28:58.457Z,25.38
2023-03-18T19:31:30.299Z,25.80
2023-03-18T19:33:59.649Z,26.30
2023-03-18T19:36:31.613Z,25.92
2023-03-18T19:39:00.492Z,26.42
2023-03-18T19:41:27.710Z,26.70
2023-03-18T19:44:05.795Z,26.95
2023-03-18T19:46:38.506Z,27.48
2023-03-18T19:49:25.483Z,27.65
2023-03-18T19:51:53.397Z,28.02
2023-03-18T19:54:32.045Z,27.88
2023-03-18T19:57:02.159Z,27.83
2023-03-18T19:59:38.270Z,27.60
2023-03-18T20:02:26.200Z,28.08
2023-03-18T20:04:55.499Z,30.10
2023-03-18T20:07:24.348Z,34.25
2023-03-18T20:09:51.440Z,32.42
2023-03-18T20:12:46.353Z,33.55
2023-03-18T20:15:20.423Z,32.90
2023-03-18T20:17:48.992Z,34.05
2023-03-18T20:20:16.810Z,33.45
2023-03-18T20:22:48.154Z,32.85
2023-03-18T20:25:36.805Z,34.28
2023-03-18T20:28:05.357Z,33.90
2023-03-18T20:30:34.186Z,34.30
2023-03-18T20:33:04.134Z,32.88
2023-03-18T20:35:33.367Z,34.35
2023-03-18T20:38:05.005Z,34.30
2023-03-18T20:40:31.865Z,33.00
2023-03-18T20:42:58.452Z,32.20
2023-03-18T20:45:26.217Z,32.45
2023-03-18T20:47:53.129Z,33.42
2023-03-18T20:50:29.831Z,31.45
2023-03-18T20:52:57.616Z,33.13
2023-03-18T20:55:27.351Z,30.38
2023-03-18T20:57:54.600Z,30.40
2023-03-18T21:00:24.099Z,30.50
2023-03-18T21:02:53.512Z,30.23
2023-03-18T21:05:20.781Z,30.23
2023-03-18T21:07:48.042Z,30.30
2023-03-18T21:10:18.703Z,30.23
2023-03-18T21:12:45.788Z,29.27
2023-03-18T21:15:24.657Z,31.15
2023-03-18T21:17:51.608Z,30.02
2023-03-18T21:20:26.436Z,30.35
2023-03-18T21:22:54.350Z,30.67
2023-03-18T21:25:23.286Z,28.83
2023-03-18T21:27:50.956Z,24.77
2023-03-18T21:30:19.402Z,25.52
2023-03-18T21:32:46.356Z,25.40
2023-03-18T21:35:26.321Z,24.30
2023-03-18T21:37:53.489Z,24.17
2023-03-18T21:40:23.160Z,25.70
2023-03-18T21:42:50.953Z,26.17
2023-03-18T21:45:20.601Z,27.33
2023-03-18T21:47:47.533Z,26.45
2023-03-18T21:50:26.178Z,28.05
2023-03-18T21:52:54.236Z,27.83
2023-03-18T21:55:21.776Z,25.63
2023-03-18T21:57:49.457Z,27.20
2023-03-18T22:00:19.878Z,25.45
2023-03-18T22:02:47.347Z,25.80
2023-03-18T22:05:20.462Z,25.75
2023-03-18T22:07:47.757Z,26.23
2023-03-18T22:10:23.227Z,26.27
2023-03-18T22:12:50.001Z,25.50
2023-03-18T22:15:36.201Z,25.98
2023-03-18T22:18:03.549Z,25.67
2023-03-18T22:20:30.507Z,26.08
2023-03-18T22:22:57.088Z,27.33
2023-03-18T22:25:37.015Z,26.17
2023-03-18T22:28:03.834Z,26.85
2023-03-18T22:30:32.941Z,26.88
2023-03-18T22:33:01.220Z,28.13
2023-03-18T22:35:29.350Z,28.02
2023-03-18T22:37:56.166Z,27.13
2023-03-18T22:40:26.348Z,28.83
2023-03-18T22:42:57.960Z,27.95
2023-03-18T22:45:27.167Z,31.50
2023-03-18T22:47:59.077Z,30.45
2023-03-18T22:50:28.498Z,34.42
2023-03-18T22:53:01.400Z,33.47
2023-03-18T22:55:38.868Z,32.65
2023-03-18T22:58:06.505Z,33.83
2023-03-18T23:00:43.672Z,36.72
2023-03-18T23:03:26.048Z,34.05
2023-03-18T23:05:53.931Z,34.45
2023-03-18T23:08:21.712Z,35.08
2023-03-18T23:10:49.838Z,36.00
2023-03-18T23:13:26.118Z,39.92
2023-03-18T23:15:53.549Z,37.80
2023-03-18T23:18:20.323Z,39.30
2023-03-18T23:20:49.372Z,38.60
2023-03-18T23:23:16.764Z,38.58
2023-03-18T23:25:45.135Z,37.20
2023-03-18T23:28:12.303Z,34.70
2023-03-18T23:30:41.112Z,32.90
2023-03-18T23:33:09.626Z,34.08
2023-03-18T23:35:37.498Z,35.22
2023-03-18T23:38:05.771Z,36.53
2023-03-18T23:40:32.551Z,36.42
2023-03-18T23:42:59.408Z,36.97
2023-03-18T23:45:27.663Z,36.10
2023-03-18T23:47:55.495Z,36.70
2023-03-18T23:50:23.341Z,37.63
2023-03-18T23:52:50.391Z,34.63
2023-03-18T23:55:33.171Z,34.92
2023-03-18T23:58:00.949Z,34.75
